createdAt,value
2022-10-23T00:01:44.711Z,1.42
2022-10-23T00:04:25.314Z,3.90
2022-10-23T00:06:52.266Z,0.80
2022-10-23T00:09:22.141Z,3.78
2022-10-23T00:11:50.297Z,1.05
2022-10-23T00:14:22.142Z,2.25
2022-10-23T00:16:48.995Z,2.85
2022-10-23T00:19:15.899Z,2.08
2022-10-23T00:21:42.886Z,3.33
2022-10-23T00:26:38.367Z,2.15
2022-10-23T00:29:05.170Z,3.03
2022-10-23T00:31:32.401Z,3.40
2022-10-23T00:34:00.746Z,2.38
2022-10-23T00:36:27.473Z,1.15
2022-10-23T00:38:54.849Z,3.22
2022-10-23T00:41:25.056Z,4.68
2022-10-23T00:44:18.026Z,2.47
2022-10-23T00:46:46.106Z,1.33
2022-10-23T00:49:13.452Z,1.48
2022-10-23T00:51:50.568Z,2.90
2022-10-23T00:54:25.075Z,5.78
2022-10-23T00:56:57.830Z,2.95
2022-10-23T00:59:24.756Z,4.90
2022-10-23T01:01:52.158Z,1.70
2022-10-23T01:04:19.830Z,3.22
2022-10-23T01:07:08.410Z,3.95
2022-10-23T01:09:54.431Z,2.78
2022-10-23T01:12:42.168Z,2.15
2022-10-23T01:15:27.995Z,3.92
2022-10-23T01:18:15.843Z,2.58
2022-10-23T01:20:52.271Z,1.83
2022-10-23T01:23:22.142Z,1.90
2022-10-23T01:26:03.543Z,3.75
2022-10-23T01:28:42.263Z,5.88
2022-10-23T01:31:14.918Z,3.05
2022-10-23T01:33:47.088Z,3.13
2022-10-23T01:36:19.270Z,2.67
2022-10-23T01:38:54.016Z,2.85
2022-10-23T01:41:42.008Z,4.15
2022-10-23T01:44:23.608Z,2.00
2022-10-23T01:46:51.911Z,5.22
2022-10-23T01:49:20.459Z,3.45
2022-10-23T01:51:55.535Z,2.53
2022-10-23T01:54:25.553Z,6.43
2022-10-23T01:56:53.133Z,4.18
2022-10-23T01:59:28.412Z,4.10
2022-10-23T02:01:57.012Z,4.97
2022-10-23T02:04:28.190Z,3.35
2022-10-23T02:09:21.602Z,2.92
2022-10-23T02:11:55.554Z,4.13
2022-10-23T02:14:53.476Z,7.35
2022-10-23T02:17:41.745Z,6.93
2022-10-23T02:20:41.159Z,6.82
2022-10-23T02:23:36.007Z,4.22
2022-10-23T02:26:11.379Z,4.18
2022-10-23T02:28:46.190Z,4.60
2022-10-23T02:31:14.683Z,7.72
2022-10-23T02:33:44.050Z,6.03
2022-10-23T02:36:10.837Z,3.42
2022-10-23T02:38:42.747Z,6.03
2022-10-23T02:41:35.044Z,4.28
2022-10-23T02:44:29.711Z,7.70
2022-10-23T02:47:18.198Z,4.90
2022-10-23T02:49:57.604Z,5.93
2022-10-23T02:52:40.647Z,6.60
2022-10-23T02:55:26.448Z,6.90
2022-10-23T02:58:19.358Z,4.22
2022-10-23T03:00:56.002Z,4.38
2022-10-23T03:03:27.776Z,3.47
2022-10-23T03:05:54.812Z,9.05
2022-10-23T03:08:21.514Z,5.57
2022-10-23T03:13:14.948Z,4.35
2022-10-23T03:15:43.573Z,8.02
2022-10-23T03:18:13.506Z,5.78
2022-10-23T03:20:45.072Z,9.40
2022-10-23T03:23:13.163Z,5.20
2022-10-23T03:25:39.974Z,6.13
2022-10-23T03:28:06.710Z,4.20
2022-10-23T03:30:35.233Z,7.10
2022-10-23T03:33:02.051Z,4.78
2022-10-23T03:35:28.764Z,5.00
2022-10-23T03:37:55.598Z,7.88
2022-10-23T03:40:24.735Z,5.10
2022-10-23T03:42:51.518Z,4.75
2022-10-23T03:45:19.418Z,7.03
2022-10-23T03:47:48.628Z,8.35
2022-10-23T03:50:15.635Z,6.25
2022-10-23T03:52:42.918Z,5.22
2022-10-23T03:55:12.260Z,4.43
2022-10-23T03:57:39.064Z,5.25
2022-10-23T04:00:07.121Z,5.80
2022-10-23T04:02:43.642Z,9.00
2022-10-23T04:05:11.602Z,8.40
2022-10-23T04:07:40.150Z,10.10
2022-10-23T04:10:07.161Z,6.13
2022-10-23T04:12:34.608Z,7.43
2022-10-23T04:15:01.358Z,7.68
2022-10-23T04:19:54.935Z,8.00
2022-10-23T04:22:24.719Z,10.30
2022-10-23T04:24:54.605Z,9.70
2022-10-23T04:27:21.343Z,11.18
2022-10-23T04:29:49.332Z,6.80
2022-10-23T04:32:16.173Z,8.07
2022-10-23T04:34:44.252Z,9.18
2022-10-23T04:37:10.959Z,7.00
2022-10-23T04:39:38.344Z,6.60
2022-10-23T04:42:05.154Z,8.52
2022-10-23T04:44:31.895Z,7.75
2022-10-23T04:46:58.620Z,5.57
2022-10-23T04:49:25.628Z,7.90
2022-10-23T04:52:11.179Z,6.88
2022-10-23T04:55:04.683Z,4.10
2022-10-23T04:57:40.626Z,4.63
2022-10-23T05:00:13.437Z,7.25
2022-10-23T05:02:54.772Z,2.90
2022-10-23T05:05:22.075Z,4.72
2022-10-23T05:08:06.233Z,3.72
2022-10-23T05:11:06.711Z,7.97
2022-10-23T05:13:38.784Z,9.00
2022-10-23T05:16:05.830Z,5.80
2022-10-23T05:18:36.607Z,4.93
2022-10-23T05:21:11.669Z,5.63
2022-10-23T05:23:41.739Z,6.93
2022-10-23T05:26:08.910Z,6.03
2022-10-23T05:28:36.895Z,6.40
2022-10-23T05:31:04.837Z,5.53
2022-10-23T05:33:34.831Z,9.90
2022-10-23T05:36:02.101Z,7.13
2022-10-23T05:38:30.713Z,7.47
2022-10-23T05:41:00.435Z,4.18
2022-10-23T05:43:27.476Z,6.05
2022-10-23T05:46:05.085Z,7.65
2022-10-23T05:51:40.467Z,6.93
2022-10-23T05:54:30.239Z,8.05
2022-10-23T05:57:23.128Z,10.05
2022-10-23T05:59:51.854Z,10.15
2022-10-23T06:02:18.641Z,8.00
2022-10-23T06:05:02.397Z,5.00
2022-10-23T06:07:49.074Z,7.82
2022-10-23T06:10:15.972Z,6.68
2022-10-23T06:12:46.050Z,10.33
2022-10-23T06:15:16.030Z,5.05
2022-10-23T06:17:55.663Z,9.18
2022-10-23T06:20:26.559Z,7.15
2022-10-23T06:23:07.771Z,8.57
2022-10-23T06:25:55.862Z,7.57
2022-10-23T06:28:31.132Z,5.10
2022-10-23T06:30:58.895Z,5.97
2022-10-23T06:33:25.784Z,7.70
2022-10-23T06:35:56.213Z,4.82
2022-10-23T06:38:23.369Z,5.63
2022-10-23T06:40:57.931Z,7.22
2022-10-23T06:43:33.530Z,13.13
2022-10-23T06:46:22.515Z,10.68
2022-10-23T06:49:18.544Z,9.63
2022-10-23T06:51:48.011Z,8.60
2022-10-23T06:54:16.422Z,10.07
2022-10-23T06:56:52.107Z,4.18
2022-10-23T06:59:23.851Z,7.55
2022-10-23T07:01:52.519Z,9.00
2022-10-23T07:04:19.614Z,6.72
2022-10-23T07:06:46.373Z,7.88
2022-10-23T07:09:13.080Z,7.28
2022-10-23T07:12:00.163Z,8.13
2022-10-23T07:14:35.183Z,5.35
2022-10-23T07:17:03.991Z,6.15
2022-10-23T07:19:30.731Z,8.95
2022-10-23T07:22:00.455Z,9.70
2022-10-23T07:24:51.377Z,5.75
2022-10-23T07:27:36.700Z,7.80
2022-10-23T07:30:04.045Z,6.65
2022-10-23T07:32:38.027Z,7.63
2022-10-23T07:35:08.232Z,5.80
2022-10-23T07:37:36.464Z,13.15
2022-10-23T07:40:05.731Z,11.82
2022-10-23T07:42:37.248Z,9.20
2022-10-23T07:45:04.582Z,7.07
2022-10-23T07:47:32.634Z,7.32
2022-10-23T07:50:00.790Z,6.50
2022-10-23T07:52:30.833Z,7.38
2022-10-23T07:55:16.086Z,6.72
2022-10-23T07:57:49.391Z,8.25
2022-10-23T08:00:34.728Z,6.45
2022-10-23T08:03:12.803Z,9.43
2022-10-23T08:05:40.200Z,4.70
2022-10-23T08:08:06.949Z,7.30
2022-10-23T08:10:34.176Z,10.52
2022-10-23T08:13:01.342Z,9.13
2022-10-23T08:15:49.460Z,4.75
2022-10-23T08:18:52.411Z,4.70
2022-10-23T08:21:19.961Z,7.15
2022-10-23T08:23:48.731Z,7.65
2022-10-23T08:26:16.232Z,4.97
2022-10-23T08:28:42.946Z,10.88
2022-10-23T08:31:16.767Z,3.90
2022-10-23T08:33:58.625Z,7.38
2022-10-23T08:36:27.519Z,7.97
2022-10-23T08:38:55.533Z,7.35
2022-10-23T08:41:35.034Z,5.55
2022-10-23T08:44:18.235Z,7.45
2022-10-23T08:46:48.283Z,6.55
2022-10-23T08:49:57.779Z,12.50
2022-10-23T08:52:39.960Z,13.25
2022-10-23T08:55:16.980Z,6.57
2022-10-23T08:57:50.173Z,6.57
2022-10-23T09:00:18.056Z,7.75
2022-10-23T09:02:52.857Z,6.70
2022-10-23T09:05:25.585Z,9.23
2022-10-23T09:08:23.110Z,4.07
2022-10-23T09:11:02.097Z,10.65
2022-10-23T09:13:47.304Z,9.60
2022-10-23T09:16:32.549Z,6.13
2022-10-23T09:18:59.379Z,10.35
2022-10-23T09:21:28.026Z,6.78
2022-10-23T09:23:54.938Z,8.98
2022-10-23T09:26:22.090Z,6.90
2022-10-23T09:28:51.838Z,24.08
2022-10-23T09:31:19.737Z,8.55
2022-10-23T09:34:00.930Z,11.80
2022-10-23T09:36:29.525Z,10.07
2022-10-23T09:38:58.968Z,13.48
2022-10-23T09:41:30.603Z,16.40
2022-10-23T09:44:24.439Z,8.68
2022-10-23T09:46:54.007Z,20.65
2022-10-23T09:49:26.147Z,8.32
2022-10-23T09:52:03.438Z,6.30
2022-10-23T09:54:37.008Z,5.80
2022-10-23T09:57:33.916Z,5.07
2022-10-23T10:00:16.107Z,7.95
2022-10-23T10:02:44.758Z,12.48
2022-10-23T10:05:37.608Z,9.32
2022-10-23T10:08:24.938Z,7.50
2022-10-23T10:10:55.205Z,9.77
2022-10-23T10:13:42.338Z,7.07
2022-10-23T10:16:12.087Z,5.72
2022-10-23T10:18:58.710Z,11.15
2022-10-23T10:21:29.183Z,9.88
2022-10-23T10:24:08.424Z,8.32
2022-10-23T10:26:47.346Z,7.97
2022-10-23T10:29:25.958Z,8.85
2022-10-23T10:32:33.779Z,9.85
2022-10-23T10:35:19.195Z,5.47
2022-10-23T10:38:02.148Z,11.10
2022-10-23T10:40:32.098Z,6.22
2022-10-23T10:43:14.003Z,6.72
2022-10-23T10:46:44.088Z,9.40
2022-10-23T10:49:16.051Z,6.05
2022-10-23T10:52:30.375Z,8.85
2022-10-23T10:55:20.578Z,5.40
2022-10-23T10:57:59.987Z,7.63
2022-10-23T11:00:29.020Z,6.00
2022-10-23T11:03:30.077Z,7.45
2022-10-23T11:08:49.804Z,7.78
2022-10-23T11:11:36.621Z,7.43
2022-10-23T11:14:03.476Z,7.38
2022-10-23T11:16:35.994Z,5.93
2022-10-23T11:19:11.411Z,6.35
2022-10-23T11:21:42.787Z,6.80
2022-10-23T11:24:30.792Z,8.00
2022-10-23T11:27:22.563Z,7.25
2022-10-23T11:30:04.725Z,4.18
2022-10-23T11:33:13.535Z,5.10
2022-10-23T11:36:02.936Z,4.68
2022-10-23T11:38:40.437Z,4.90
2022-10-23T11:41:26.554Z,4.75
2022-10-23T11:43:57.063Z,6.65
2022-10-23T11:46:24.674Z,4.15
2022-10-23T11:48:52.469Z,5.03
2022-10-23T11:51:36.082Z,4.35
2022-10-23T11:54:11.971Z,4.47
2022-10-23T11:56:51.259Z,6.07
2022-10-23T11:59:30.656Z,3.35
2022-10-23T12:02:00.245Z,5.28
2022-10-23T12:04:34.732Z,10.23
2022-10-23T12:07:04.820Z,7.63
2022-10-23T12:09:41.613Z,8.30
2022-10-23T12:12:08.354Z,6.43
2022-10-23T12:14:44.059Z,10.77
2022-10-23T12:17:22.816Z,7.15
2022-10-23T12:19:55.854Z,17.95
2022-10-23T12:22:26.831Z,11.65
2022-10-23T12:27:46.212Z,13.60
2022-10-23T12:30:31.594Z,13.30
2022-10-23T12:33:13.539Z,9.20
2022-10-23T12:36:12.552Z,13.68
2022-10-23T12:38:47.511Z,15.98
2022-10-23T12:41:21.653Z,13.27
2022-10-23T12:43:55.453Z,9.23
2022-10-23T12:46:32.906Z,17.85
2022-10-23T12:49:01.199Z,14.60
2022-10-23T12:51:30.587Z,11.65
2022-10-23T12:53:57.907Z,17.30
2022-10-23T12:56:26.076Z,11.05
2022-10-23T12:58:58.247Z,8.85
2022-10-23T13:01:33.485Z,9.43
2022-10-23T13:04:30.468Z,9.27
2022-10-23T13:07:00.011Z,11.82
2022-10-23T13:09:33.079Z,9.80
2022-10-23T13:12:27.727Z,13.25
2022-10-23T13:15:06.653Z,8.27
2022-10-23T13:17:35.818Z,16.75
2022-10-23T13:20:22.038Z,11.45
2022-10-23T13:22:56.409Z,13.30
2022-10-23T13:25:34.251Z,12.80
2022-10-23T13:28:12.846Z,10.88
2022-10-23T13:30:43.072Z,11.43
2022-10-23T13:33:15.989Z,11.63
2022-10-23T13:35:43.778Z,7.03
2022-10-23T13:38:10.780Z,16.17
2022-10-23T13:40:37.708Z,7.75
2022-10-23T13:43:06.300Z,6.97
2022-10-23T13:45:35.692Z,8.15
2022-10-23T13:48:02.424Z,9.05
2022-10-23T13:50:29.260Z,9.98
2022-10-23T13:52:56.020Z,10.48
2022-10-23T14:04:31.862Z,11.90
2022-10-23T14:06:58.868Z,14.98
2022-10-23T14:09:25.723Z,9.98
2022-10-23T14:11:52.467Z,10.35
2022-10-23T14:14:19.184Z,14.02
2022-10-23T14:16:46.298Z,11.07
2022-10-23T14:19:13.162Z,10.25
2022-10-23T14:21:39.901Z,9.55
2022-10-23T14:24:06.964Z,8.82
2022-10-23T14:26:34.381Z,7.90
2022-10-23T14:29:05.091Z,17.55
2022-10-23T14:31:35.780Z,7.13
2022-10-23T14:34:02.564Z,23.80
2022-10-23T14:36:38.562Z,5.72
2022-10-23T14:39:16.431Z,9.13
2022-10-23T14:41:43.190Z,18.02
2022-10-23T14:44:10.076Z,14.02
2022-10-23T14:46:38.401Z,12.23
2022-10-23T14:49:05.629Z,11.05
2022-10-23T14:51:32.834Z,9.63
2022-10-23T14:54:01.590Z,8.52
2022-10-23T14:56:32.993Z,4.05
2022-10-23T14:59:03.615Z,5.10
2022-10-23T15:01:43.894Z,9.63
2022-10-23T15:04:15.029Z,8.65
2022-10-23T15:06:42.449Z,12.13
2022-10-23T15:09:09.528Z,8.05
2022-10-23T15:11:36.389Z,6.82
2022-10-23T15:14:03.224Z,10.85
2022-10-23T15:16:30.152Z,7.53
2022-10-23T15:18:56.895Z,10.57
2022-10-23T15:21:23.838Z,7.25
2022-10-23T15:23:50.677Z,6.45
2022-10-23T15:26:23.799Z,8.60
2022-10-23T15:28:55.044Z,9.73
2022-10-23T15:31:43.196Z,12.63
2022-10-23T15:34:15.668Z,8.63
2022-10-23T15:36:42.828Z,9.95
2022-10-23T15:39:10.119Z,31.95
2022-10-23T15:41:38.783Z,8.23
2022-10-23T15:44:06.282Z,6.38
2022-10-23T15:46:33.282Z,9.88
2022-10-23T15:49:00.020Z,14.82
2022-10-23T15:51:27.218Z,7.38
2022-10-23T15:53:54.352Z,80.63
2022-10-23T15:56:21.101Z,34.97
2022-10-23T15:58:47.869Z,50.90
2022-10-23T16:01:14.847Z,42.88
2022-10-23T16:03:41.730Z,72.80
2022-10-23T16:06:11.310Z,128.90
2022-10-23T16:08:39.278Z,54.60
2022-10-23T16:11:14.886Z,72.95
2022-10-23T16:13:42.953Z,31.48
2022-10-23T16:16:09.856Z,125.18
2022-10-23T16:18:36.760Z,93.72
2022-10-23T16:21:03.686Z,35.88
2022-10-23T16:23:30.529Z,74.05
2022-10-23T16:25:57.232Z,36.58
2022-10-23T16:28:24.045Z,102.72
2022-10-23T16:30:50.752Z,42.53
2022-10-23T16:33:18.382Z,80.55
2022-10-23T16:35:45.090Z,29.00
2022-10-23T16:38:17.580Z,62.55
2022-10-23T16:40:51.172Z,70.72
2022-10-23T16:43:38.359Z,41.28
2022-10-23T16:46:16.971Z,60.75
2022-10-23T16:48:43.803Z,22.50
2022-10-23T16:51:14.195Z,22.23
2022-10-23T16:53:41.801Z,21.88
2022-10-23T16:56:10.675Z,36.85
2022-10-23T16:58:40.965Z,55.42
2022-10-23T17:01:22.848Z,60.30
2022-10-23T17:03:51.523Z,133.23
2022-10-23T17:06:23.575Z,115.72
2022-10-23T17:08:50.632Z,156.18
2022-10-23T17:11:18.737Z,85.05
2022-10-23T17:13:48.215Z,171.93
2022-10-23T17:16:18.085Z,37.30
2022-10-23T17:18:45.187Z,180.23
2022-10-23T17:21:16.966Z,138.82
2022-10-23T17:23:44.313Z,145.48
2022-10-23T17:26:13.473Z,119.28
2022-10-23T17:28:42.411Z,165.40
2022-10-23T17:31:12.581Z,110.55
2022-10-23T17:33:40.430Z,78.40
2022-10-23T17:36:07.793Z,164.43
2022-10-23T17:38:38.854Z,186.45
2022-10-23T17:43:34.307Z,156.60
2022-10-23T17:46:01.184Z,155.35
2022-10-23T17:48:28.046Z,209.73
2022-10-23T17:51:09.539Z,143.48
2022-10-23T17:53:38.381Z,112.72
2022-10-23T17:56:07.209Z,162.30
2022-10-23T17:58:34.875Z,161.90
2022-10-23T18:01:06.534Z,57.28
2022-10-23T18:03:33.957Z,169.82
2022-10-23T18:06:12.076Z,162.68
2022-10-23T18:08:40.754Z,257.92
2022-10-23T18:11:08.629Z,198.07
2022-10-23T18:13:36.924Z,285.65
2022-10-23T18:16:06.164Z,205.90
2022-10-23T18:18:33.737Z,250.30
2022-10-23T18:21:01.764Z,229.48
2022-10-23T18:23:29.508Z,228.65
2022-10-23T18:25:56.844Z,304.70
2022-10-23T18:28:23.875Z,288.75
2022-10-23T18:30:53.341Z,329.95
2022-10-23T18:33:23.099Z,371.35
2022-10-23T18:35:49.819Z,190.73
2022-10-23T18:38:16.602Z,290.58
2022-10-23T18:40:43.846Z,403.20
2022-10-23T18:43:15.024Z,357.63
2022-10-23T18:45:46.826Z,346.15
2022-10-23T18:48:13.689Z,300.38
2022-10-23T18:50:40.632Z,345.30
2022-10-23T18:53:07.366Z,289.45
2022-10-23T18:58:05.989Z,274.48
2022-10-23T19:00:32.694Z,119.53
2022-10-23T19:02:59.419Z,273.00
2022-10-23T19:05:26.251Z,168.07
2022-10-23T19:07:54.214Z,51.75
2022-10-23T19:10:22.202Z,17.48
2022-10-23T19:12:49.135Z,13.77
2022-10-23T19:15:16.014Z,8.35
2022-10-23T19:17:42.799Z,15.80
2022-10-23T19:20:13.525Z,5.38
2022-10-23T19:22:43.666Z,2.90
2022-10-23T19:25:12.858Z,4.28
2022-10-23T19:27:39.978Z,5.80
2022-10-23T19:30:13.555Z,4.47
2022-10-23T19:32:41.631Z,6.15
2022-10-23T19:35:09.199Z,6.40
2022-10-23T19:37:36.369Z,3.70
2022-10-23T19:40:06.653Z,5.90
2022-10-23T19:42:34.480Z,6.13
2022-10-23T19:45:01.228Z,2.97
2022-10-23T19:47:28.000Z,4.20
2022-10-23T19:49:55.030Z,3.72
2022-10-23T19:52:25.085Z,3.63
2022-10-23T19:54:52.067Z,6.03
2022-10-23T19:57:21.834Z,3.88
2022-10-23T19:59:50.282Z,3.78
2022-10-23T20:02:20.667Z,2.20
2022-10-23T20:04:47.558Z,4.22
2022-10-23T20:07:14.266Z,3.28
2022-10-23T20:09:41.113Z,3.17
2022-10-23T20:12:07.839Z,4.05
2022-10-23T20:14:34.621Z,2.17
2022-10-23T20:17:01.699Z,3.08
2022-10-23T20:19:28.793Z,1.63
2022-10-23T20:21:55.628Z,2.63
2022-10-23T20:24:22.794Z,3.22
2022-10-23T20:26:53.979Z,3.55
2022-10-23T20:29:21.661Z,3.38
2022-10-23T20:31:48.503Z,6.00
2022-10-23T20:34:15.401Z,6.45
2022-10-23T20:36:47.469Z,5.13
2022-10-23T20:39:17.297Z,16.67
2022-10-23T20:41:45.149Z,3.85
2022-10-23T20:44:14.575Z,7.53
2022-10-23T20:46:42.523Z,5.30
2022-10-23T20:49:09.725Z,5.88
2022-10-23T20:51:36.543Z,9.98
2022-10-23T20:54:03.630Z,9.73
2022-10-23T20:56:35.492Z,10.95
2022-10-23T20:59:04.930Z,6.38
2022-10-23T21:01:33.773Z,13.65
2022-10-23T21:04:01.989Z,11.75
2022-10-23T21:06:45.401Z,12.82
2022-10-23T21:09:17.983Z,19.75
2022-10-23T21:11:44.789Z,8.32
2022-10-23T21:14:11.516Z,13.40
2022-10-23T21:16:44.307Z,9.38
2022-10-23T21:19:15.892Z,6.28
2022-10-23T21:21:43.611Z,3.65
2022-10-23T21:24:14.729Z,11.23
2022-10-23T21:26:41.959Z,4.70
2022-10-23T21:29:24.260Z,4.72
2022-10-23T21:31:53.032Z,6.50
2022-10-23T21:34:19.815Z,4.60
2022-10-23T21:37:11.312Z,5.07
2022-10-23T21:39:34.354Z,7.18
2022-10-23T21:42:01.175Z,7.72
2022-10-23T21:44:27.941Z,6.90
2022-10-23T21:46:55.344Z,7.63
2022-10-23T21:49:22.099Z,6.97
2022-10-23T21:51:48.792Z,3.45
2022-10-23T21:54:15.723Z,6.65
2022-10-23T21:56:44.957Z,8.35
2022-10-23T21:59:14.474Z,9.52
2022-10-23T22:01:43.307Z,5.57
2022-10-23T22:04:11.688Z,12.13
2022-10-23T22:06:38.935Z,9.40
2022-10-23T22:09:06.367Z,6.38
2022-10-23T22:11:33.315Z,8.70
2022-10-23T22:14:00.618Z,2.80
2022-10-23T22:16:27.690Z,5.25
2022-10-23T22:18:54.438Z,4.10
2022-10-23T22:21:23.569Z,1.45
2022-10-23T22:23:50.976Z,1.27
2022-10-23T22:26:26.945Z,2.65
2022-10-23T22:28:55.635Z,1.85
2022-10-23T22:31:25.021Z,5.13
2022-10-23T22:33:52.711Z,2.17
2022-10-23T22:36:20.254Z,5.05
2022-10-23T22:38:47.527Z,3.15
2022-10-23T22:41:14.498Z,4.88
2022-10-23T22:43:41.258Z,4.55
2022-10-23T22:46:09.428Z,3.33
2022-10-23T22:48:36.471Z,3.03
2022-10-23T22:51:07.249Z,6.07
2022-10-23T22:53:35.804Z,24.13
2022-10-23T22:56:06.647Z,15.60
2022-10-23T22:58:33.660Z,25.92
2022-10-23T23:01:08.937Z,24.90
2022-10-23T23:03:37.010Z,9.18
2022-10-23T23:06:05.434Z,20.35
2022-10-23T23:08:32.390Z,3.80
2022-10-23T23:10:59.168Z,3.10
2022-10-23T23:13:26.402Z,15.15
2022-10-23T23:15:53.440Z,8.77
2022-10-23T23:18:20.581Z,10.80
2022-10-23T23:20:47.714Z,27.35
2022-10-23T23:23:14.899Z,4.00
2022-10-23T23:25:46.856Z,7.60
2022-10-23T23:28:15.071Z,2.85
2022-10-23T23:30:42.379Z,31.35
2022-10-23T23:33:09.955Z,10.57
2022-10-23T23:35:44.286Z,11.10
2022-10-23T23:38:11.856Z,18.30
2022-10-23T23:40:39.040Z,6.72
2022-10-23T23:43:05.795Z,8.27
2022-10-23T23:45:32.879Z,3.30
2022-10-23T23:47:59.786Z,21.35
2022-10-23T23:50:28.001Z,9.05
2022-10-23T23:52:54.745Z,14.68
2022-10-23T23:55:21.674Z,28.92
2022-10-23T23:57:48.387Z,22.13
